createdAt,value
2023-12-07T00:00:05.359Z,23.55
2023-12-07T00:02:32.742Z,22.58
2023-12-07T00:04:59.638Z,22.58
2023-12-07T00:07:26.351Z,20.92
2023-12-07T00:09:53.336Z,21.67
2023-12-07T00:12:20.271Z,23.08
2023-12-07T00:14:47.329Z,26.75
2023-12-07T00:17:14.843Z,23.02
2023-12-07T00:19:41.821Z,24.02
2023-12-07T00:22:08.567Z,21.60
2023-12-07T00:24:35.497Z,20.48
2023-12-07T00:27:02.244Z,24.58
2023-12-07T00:29:29.169Z,20.70
2023-12-07T00:31:55.834Z,21.92
2023-12-07T00:34:22.870Z,23.55
2023-12-07T00:36:50.022Z,22.23
2023-12-07T00:39:18.060Z,21.30
2023-12-07T00:41:44.772Z,22.98
2023-12-07T00:44:11.691Z,20.33
2023-12-07T00:46:38.388Z,21.73
2023-12-07T00:49:05.365Z,20.65
2023-12-07T00:51:32.213Z,23.88
2023-12-07T00:53:59.593Z,19.27
2023-12-07T00:56:26.400Z,20.95
2023-12-07T00:58:53.491Z,21.80
2023-12-07T01:01:20.230Z,20.92
2023-12-07T01:03:47.285Z,21.30
2023-12-07T01:06:14.122Z,22.17
2023-12-07T01:08:41.520Z,22.20
2023-12-07T01:11:08.208Z,21.98
2023-12-07T01:13:37.138Z,22.10
2023-12-07T01:16:04.155Z,19.20
2023-12-07T01:18:31.172Z,23.63
2023-12-07T01:20:57.941Z,22.20
2023-12-07T01:23:25.176Z,21.23
2023-12-07T01:25:51.961Z,22.63
2023-12-07T01:28:19.346Z,21.88
2023-12-07T01:30:46.075Z,22.27
2023-12-07T01:33:13.256Z,24.08
2023-12-07T01:35:39.912Z,22.38
2023-12-07T01:38:06.851Z,21.90
2023-12-07T01:40:33.582Z,25.17
2023-12-07T01:43:01.236Z,21.88
2023-12-07T01:45:27.892Z,23.90
2023-12-07T01:47:55.454Z,19.40
2023-12-07T01:50:25.993Z,22.52
2023-12-07T01:52:58.684Z,22.90
2023-12-07T01:55:25.906Z,20.15
2023-12-07T01:57:52.998Z,22.10
2023-12-07T02:00:20.293Z,21.67
2023-12-07T02:02:48.030Z,22.08
2023-12-07T02:05:15.325Z,21.40
2023-12-07T02:07:42.654Z,21.77
2023-12-07T02:10:09.797Z,20.00
2023-12-07T02:12:37.266Z,22.70
2023-12-07T02:15:04.569Z,21.85
2023-12-07T02:17:37.627Z,23.10
2023-12-07T02:20:29.768Z,19.83
2023-12-07T02:22:58.281Z,22.58
2023-12-07T02:25:30.145Z,20.25
2023-12-07T02:27:57.193Z,22.33
2023-12-07T02:30:23.967Z,23.88
2023-12-07T02:32:50.997Z,19.95
2023-12-07T02:35:17.832Z,20.17
2023-12-07T02:37:46.505Z,26.38
2023-12-07T02:40:16.060Z,21.58
2023-12-07T02:42:44.110Z,21.20
2023-12-07T02:45:11.728Z,21.40
2023-12-07T02:47:38.883Z,20.48
2023-12-07T02:50:09.247Z,21.90
2023-12-07T02:55:04.195Z,19.83
2023-12-07T02:57:31.529Z,21.40
2023-12-07T02:59:58.320Z,20.48
2023-12-07T03:02:25.839Z,21.90
2023-12-07T03:04:52.794Z,21.48
2023-12-07T03:07:19.814Z,17.05
2023-12-07T03:09:46.493Z,22.60
2023-12-07T03:12:13.463Z,20.40
2023-12-07T03:14:40.149Z,20.63
2023-12-07T03:17:07.095Z,22.35
2023-12-07T03:19:33.783Z,19.85
2023-12-07T03:22:00.727Z,17.65
2023-12-07T03:24:27.412Z,20.77
2023-12-07T03:26:54.373Z,22.65
2023-12-07T03:29:21.063Z,25.73
2023-12-07T03:31:48.017Z,21.33
2023-12-07T03:34:16.814Z,21.27
2023-12-07T03:36:49.218Z,24.50
2023-12-07T03:39:16.501Z,24.42
2023-12-07T03:41:43.482Z,23.98
2023-12-07T03:44:10.408Z,27.13
2023-12-07T03:46:37.482Z,22.65
2023-12-07T03:49:04.376Z,26.90
2023-12-07T03:51:31.362Z,24.50
2023-12-07T03:53:58.078Z,28.33
2023-12-07T03:56:29.523Z,28.25
2023-12-07T03:58:56.899Z,27.40
2023-12-07T04:01:25.072Z,29.67
2023-12-07T04:03:55.875Z,25.27
2023-12-07T04:06:23.510Z,29.98
2023-12-07T04:08:50.718Z,34.03
2023-12-07T04:11:18.102Z,25.15
2023-12-07T04:13:45.204Z,32.05
2023-12-07T04:16:12.290Z,29.13
2023-12-07T04:18:39.187Z,26.90
2023-12-07T04:21:06.793Z,26.52
2023-12-07T04:23:34.218Z,30.80
2023-12-07T04:26:01.219Z,28.95
2023-12-07T04:28:27.985Z,29.65
2023-12-07T04:30:55.372Z,27.05
2023-12-07T04:33:22.215Z,25.35
2023-12-07T04:35:49.780Z,24.95
2023-12-07T04:38:16.513Z,31.88
2023-12-07T04:40:43.636Z,31.08
2023-12-07T04:43:10.507Z,26.42
2023-12-07T04:45:37.561Z,27.15
2023-12-07T04:48:05.875Z,29.05
2023-12-07T04:50:33.086Z,28.42
2023-12-07T04:53:00.171Z,26.27
2023-12-07T04:55:27.541Z,30.77
2023-12-07T04:57:54.550Z,25.08
2023-12-07T05:00:22.530Z,26.55
2023-12-07T05:02:49.638Z,24.70
2023-12-07T05:05:16.661Z,28.40
2023-12-07T05:07:43.447Z,27.25
2023-12-07T05:10:11.010Z,30.45
2023-12-07T05:12:38.041Z,30.15
2023-12-07T05:15:06.844Z,32.65
2023-12-07T05:17:34.314Z,27.75
2023-12-07T05:20:01.479Z,29.63
2023-12-07T05:22:29.168Z,26.63
2023-12-07T05:24:56.731Z,26.77
2023-12-07T05:27:23.494Z,29.48
2023-12-07T05:29:53.563Z,33.10
2023-12-07T05:32:20.331Z,32.17
2023-12-07T05:34:47.466Z,27.52
2023-12-07T05:37:14.220Z,29.75
2023-12-07T05:39:41.632Z,26.00
2023-12-07T05:42:08.419Z,33.25
2023-12-07T05:44:35.437Z,27.77
2023-12-07T05:47:02.267Z,27.33
2023-12-07T05:49:29.392Z,32.17
2023-12-07T05:51:56.092Z,28.60
2023-12-07T05:54:26.038Z,26.60
2023-12-07T05:56:52.707Z,25.75
2023-12-07T05:59:19.715Z,29.83
2023-12-07T06:01:46.613Z,28.88
2023-12-07T06:04:14.324Z,24.15
2023-12-07T06:06:41.799Z,27.88
2023-12-07T06:09:09.432Z,24.38
2023-12-07T06:11:36.518Z,27.77
2023-12-07T06:14:04.348Z,32.10
2023-12-07T06:16:31.304Z,30.65
2023-12-07T06:18:58.441Z,30.58
2023-12-07T06:21:26.623Z,29.15
2023-12-07T06:23:54.113Z,25.65
2023-12-07T06:26:20.980Z,27.00
2023-12-07T06:28:48.000Z,30.63
2023-12-07T06:31:16.858Z,30.00
2023-12-07T06:33:44.374Z,26.13
2023-12-07T06:36:11.471Z,31.13
2023-12-07T06:38:39.733Z,29.08
2023-12-07T06:41:06.596Z,30.40
2023-12-07T06:43:33.666Z,26.98
2023-12-07T06:46:00.440Z,28.60
2023-12-07T06:48:27.866Z,30.33
2023-12-07T06:50:54.610Z,28.50
2023-12-07T06:53:21.607Z,31.42
2023-12-07T06:55:48.445Z,30.48
2023-12-07T06:58:15.835Z,31.30
2023-12-07T07:00:42.571Z,29.25
2023-12-07T07:03:09.697Z,29.52
2023-12-07T07:05:36.516Z,30.27
2023-12-07T07:08:03.695Z,32.88
2023-12-07T07:10:30.536Z,31.95
2023-12-07T07:13:06.856Z,28.20
2023-12-07T07:15:33.924Z,40.30
2023-12-07T07:18:00.977Z,28.73
2023-12-07T07:20:27.956Z,25.40
2023-12-07T07:22:54.980Z,28.00
2023-12-07T07:25:21.747Z,29.60
2023-12-07T07:27:48.807Z,26.42
2023-12-07T07:30:15.738Z,30.02
2023-12-07T07:32:42.979Z,30.00
2023-12-07T07:35:10.121Z,33.78
2023-12-07T07:37:37.221Z,31.48
2023-12-07T07:40:07.869Z,32.22
2023-12-07T07:42:38.445Z,31.95
2023-12-07T07:45:09.480Z,25.33
2023-12-07T07:47:39.378Z,47.30
2023-12-07T07:50:07.108Z,38.58
2023-12-07T07:52:35.063Z,27.83
2023-12-07T07:55:04.005Z,32.85
2023-12-07T07:57:31.716Z,33.55
2023-12-07T07:59:59.154Z,29.77
2023-12-07T08:02:26.273Z,28.83
2023-12-07T08:04:53.071Z,30.35
2023-12-07T08:07:20.549Z,30.90
2023-12-07T08:09:47.342Z,30.70
2023-12-07T08:12:14.466Z,27.23
2023-12-07T08:14:43.643Z,28.30
2023-12-07T08:17:11.449Z,31.10
2023-12-07T08:19:39.122Z,29.60
2023-12-07T08:22:06.319Z,29.95
2023-12-07T08:24:33.039Z,26.83
2023-12-07T08:27:00.246Z,28.95
2023-12-07T08:29:26.991Z,24.77
2023-12-07T08:31:54.144Z,25.90
2023-12-07T08:34:24.029Z,26.33
2023-12-07T08:39:18.170Z,29.15
2023-12-07T08:41:45.218Z,29.65
2023-12-07T08:44:12.515Z,27.05
2023-12-07T08:46:39.785Z,26.13
2023-12-07T08:49:07.501Z,27.77
2023-12-07T08:51:35.460Z,27.15
2023-12-07T08:54:02.150Z,25.30
2023-12-07T08:56:32.177Z,23.52
2023-12-07T08:58:58.862Z,24.05
2023-12-07T09:01:32.678Z,25.73
2023-12-07T09:04:00.838Z,28.50
2023-12-07T09:06:28.144Z,21.85
2023-12-07T09:08:56.294Z,23.85
2023-12-07T09:11:23.469Z,24.75
2023-12-07T09:13:50.653Z,24.40
2023-12-07T09:16:17.770Z,23.27
2023-12-07T09:18:46.254Z,25.33
2023-12-07T09:21:14.081Z,23.75
2023-12-07T09:23:40.825Z,25.65
2023-12-07T09:26:08.950Z,22.65
2023-12-07T09:28:35.938Z,22.13
2023-12-07T09:31:03.161Z,22.50
2023-12-07T09:33:30.061Z,24.70
2023-12-07T09:35:57.229Z,24.35
2023-12-07T09:38:23.956Z,28.02
2023-12-07T09:40:54.451Z,25.58
2023-12-07T09:43:21.361Z,26.25
2023-12-07T09:45:48.972Z,25.58
2023-12-07T09:48:17.708Z,24.23
2023-12-07T09:50:44.728Z,19.52
2023-12-07T09:53:11.619Z,21.25
2023-12-07T09:55:39.353Z,21.52
2023-12-07T09:58:08.597Z,18.65
2023-12-07T10:00:37.991Z,20.35
2023-12-07T10:03:09.251Z,23.20
2023-12-07T10:05:59.105Z,23.98
2023-12-07T10:08:33.705Z,24.42
2023-12-07T10:11:08.828Z,26.48
2023-12-07T10:13:36.692Z,25.40
2023-12-07T10:16:16.324Z,26.52
2023-12-07T10:18:44.896Z,27.00
2023-12-07T10:21:14.107Z,26.77
2023-12-07T10:23:44.557Z,27.92
2023-12-07T10:26:11.934Z,27.60
2023-12-07T10:28:40.780Z,27.20
2023-12-07T10:31:11.522Z,29.52
2023-12-07T10:36:06.503Z,26.90
2023-12-07T10:38:33.967Z,31.25
2023-12-07T10:41:07.615Z,25.33
2023-12-07T10:43:39.897Z,29.33
2023-12-07T10:46:07.211Z,28.38
2023-12-07T10:48:34.687Z,27.38
2023-12-07T10:51:04.184Z,28.90
2023-12-07T10:53:41.525Z,25.80
2023-12-07T10:56:12.503Z,29.40
2023-12-07T10:58:40.201Z,27.80
2023-12-07T11:01:10.029Z,28.35
2023-12-07T11:03:38.166Z,29.60
2023-12-07T11:06:07.140Z,28.25
2023-12-07T11:08:52.272Z,27.65
2023-12-07T11:11:45.650Z,29.20
2023-12-07T11:14:12.991Z,27.45
2023-12-07T11:16:44.727Z,25.77
2023-12-07T11:19:34.676Z,25.83
2023-12-07T11:22:07.436Z,25.42
2023-12-07T11:24:34.266Z,31.00
2023-12-07T11:27:02.392Z,26.55
2023-12-07T11:29:30.236Z,29.08
2023-12-07T11:31:58.455Z,26.73
2023-12-07T11:34:44.469Z,25.17
2023-12-07T11:37:19.913Z,26.02
2023-12-07T11:39:46.899Z,23.70
2023-12-07T11:42:18.952Z,23.63
2023-12-07T11:44:50.140Z,23.83
2023-12-07T11:47:18.665Z,26.63
2023-12-07T11:49:45.978Z,26.00
2023-12-07T11:52:22.459Z,27.50
2023-12-07T11:54:50.931Z,25.08
2023-12-07T11:57:18.832Z,25.45
2023-12-07T11:59:46.161Z,29.13
2023-12-07T12:02:13.742Z,25.70
2023-12-07T12:04:44.577Z,27.13
2023-12-07T12:07:11.949Z,27.65
2023-12-07T12:09:38.771Z,29.48
2023-12-07T12:12:06.229Z,28.20
2023-12-07T12:14:33.124Z,28.13
2023-12-07T12:17:00.247Z,26.60
2023-12-07T12:19:32.732Z,27.05
2023-12-07T12:22:07.122Z,28.45
2023-12-07T12:24:36.717Z,28.42
2023-12-07T12:27:04.625Z,26.42
2023-12-07T12:29:34.447Z,26.40
2023-12-07T12:32:03.840Z,30.88
2023-12-07T12:34:31.078Z,26.20
2023-12-07T12:36:58.454Z,26.50
2023-12-07T12:39:33.228Z,31.85
2023-12-07T12:42:02.509Z,27.90
2023-12-07T12:44:36.573Z,28.85
2023-12-07T12:47:13.017Z,30.35
2023-12-07T12:49:41.548Z,32.88
2023-12-07T12:52:13.410Z,30.40
2023-12-07T12:54:44.350Z,33.85
2023-12-07T12:57:11.577Z,30.73
2023-12-07T12:59:38.452Z,31.80
2023-12-07T13:02:05.853Z,33.28
2023-12-07T13:04:40.924Z,32.72
2023-12-07T13:07:09.956Z,30.58
2023-12-07T13:09:36.765Z,31.10
2023-12-07T13:12:05.833Z,34.47
2023-12-07T13:14:37.032Z,32.60
2023-12-07T13:17:05.724Z,34.05
2023-12-07T13:19:33.109Z,37.67
2023-12-07T13:22:04.510Z,30.77
2023-12-07T13:24:31.315Z,34.35
2023-12-07T13:27:01.470Z,33.22
2023-12-07T13:29:35.351Z,35.00
2023-12-07T13:32:05.372Z,34.72
2023-12-07T13:34:32.395Z,33.05
2023-12-07T13:36:59.994Z,36.03
2023-12-07T13:39:30.664Z,34.15
2023-12-07T13:42:01.364Z,34.13
2023-12-07T13:44:29.738Z,38.55
2023-12-07T13:46:58.254Z,37.05
2023-12-07T13:49:32.323Z,40.85
2023-12-07T13:52:06.281Z,39.70
2023-12-07T13:54:47.022Z,38.60
2023-12-07T13:57:21.783Z,43.40
2023-12-07T13:59:48.809Z,46.40
2023-12-07T14:02:16.518Z,47.15
2023-12-07T14:04:43.786Z,45.47
2023-12-07T14:07:12.842Z,44.50
2023-12-07T14:09:53.496Z,43.67
2023-12-07T14:12:25.455Z,46.00
2023-12-07T14:14:52.581Z,47.70
2023-12-07T14:17:20.838Z,40.13
2023-12-07T14:19:49.786Z,45.42
2023-12-07T14:22:17.311Z,46.40
2023-12-07T14:24:44.272Z,48.75
2023-12-07T14:27:11.503Z,50.30
2023-12-07T14:29:38.289Z,48.33
2023-12-07T14:32:05.491Z,46.80
2023-12-07T14:34:35.293Z,48.50
2023-12-07T14:37:07.388Z,44.38
2023-12-07T14:39:38.282Z,44.75
2023-12-07T14:42:06.143Z,46.67
2023-12-07T14:44:33.583Z,44.72
2023-12-07T14:47:00.671Z,48.72
2023-12-07T14:49:29.324Z,41.15
2023-12-07T14:52:00.532Z,47.90
2023-12-07T14:54:30.137Z,44.08
2023-12-07T14:56:58.283Z,47.03
2023-12-07T14:59:25.403Z,42.05
2023-12-07T15:01:53.212Z,42.55
2023-12-07T15:04:28.287Z,39.92
2023-12-07T15:07:01.683Z,39.55
2023-12-07T15:09:29.557Z,42.42
2023-12-07T15:11:57.345Z,41.78
2023-12-07T15:14:33.924Z,44.42
2023-12-07T15:17:06.185Z,44.92
2023-12-07T15:19:34.203Z,39.78
2023-12-07T15:22:01.652Z,45.50
2023-12-07T15:24:34.772Z,45.78
2023-12-07T15:27:06.729Z,45.63
2023-12-07T15:29:38.889Z,42.58
2023-12-07T15:32:06.785Z,38.90
2023-12-07T15:34:38.881Z,44.53
2023-12-07T15:37:11.846Z,46.42
2023-12-07T15:39:43.785Z,39.85
2023-12-07T15:42:12.085Z,43.20
2023-12-07T15:44:39.142Z,56.17
2023-12-07T15:47:07.155Z,43.88
2023-12-07T15:49:34.232Z,44.88
2023-12-07T15:52:01.796Z,47.40
2023-12-07T15:56:59.066Z,47.05
2023-12-07T15:59:26.121Z,47.00
2023-12-07T16:01:53.201Z,45.58
2023-12-07T16:04:29.195Z,43.97
2023-12-07T16:07:03.021Z,44.75
2023-12-07T16:09:29.702Z,47.25
2023-12-07T16:11:57.166Z,47.90
2023-12-07T16:14:29.624Z,41.28
2023-12-07T16:17:00.977Z,45.70
2023-12-07T16:19:28.839Z,48.80
2023-12-07T16:21:57.033Z,39.30
2023-12-07T16:24:23.931Z,41.55
2023-12-07T16:26:53.077Z,48.72
2023-12-07T16:29:20.152Z,57.00
2023-12-07T16:31:47.464Z,43.85
2023-12-07T16:34:14.660Z,42.58
2023-12-07T16:36:41.825Z,41.33
2023-12-07T16:39:09.203Z,42.72
2023-12-07T16:41:41.658Z,36.17
2023-12-07T16:44:15.351Z,43.72
2023-12-07T16:46:45.986Z,44.92
2023-12-07T16:51:42.957Z,39.35
2023-12-07T16:54:09.945Z,46.72
2023-12-07T16:56:37.257Z,45.42
2023-12-07T16:59:04.151Z,48.78
2023-12-07T17:01:31.282Z,47.70
2023-12-07T17:03:58.256Z,48.95
2023-12-07T17:06:25.929Z,43.75
2023-12-07T17:09:06.966Z,54.25
2023-12-07T17:11:39.412Z,47.70
2023-12-07T17:14:06.378Z,56.50
2023-12-07T17:16:33.958Z,53.67
2023-12-07T17:19:01.187Z,53.92
2023-12-07T17:21:29.918Z,53.53
2023-12-07T17:23:59.343Z,54.75
2023-12-07T17:26:30.412Z,57.97
2023-12-07T17:29:00.554Z,49.50
2023-12-07T17:31:27.681Z,56.10
2023-12-07T17:33:57.015Z,53.40
2023-12-07T17:38:52.541Z,44.53
2023-12-07T17:41:19.845Z,51.05
2023-12-07T17:43:46.918Z,50.50
2023-12-07T17:46:13.984Z,50.80
2023-12-07T17:48:40.854Z,53.83
2023-12-07T17:51:09.622Z,50.75
2023-12-07T17:53:36.578Z,40.60
2023-12-07T17:56:04.493Z,46.97
2023-12-07T17:58:31.412Z,45.42
2023-12-07T18:00:58.448Z,45.28
2023-12-07T18:03:26.047Z,43.22
2023-12-07T18:05:53.281Z,44.60
2023-12-07T18:08:20.036Z,43.33
2023-12-07T18:10:46.979Z,42.67
2023-12-07T18:13:13.941Z,42.20
2023-12-07T18:15:41.021Z,41.03
2023-12-07T18:18:08.030Z,44.80
2023-12-07T18:20:35.103Z,40.88
2023-12-07T18:23:01.806Z,38.75
2023-12-07T18:25:28.935Z,48.45
2023-12-07T18:27:55.613Z,45.42
2023-12-07T18:30:22.397Z,47.13
2023-12-07T18:32:49.415Z,47.40
2023-12-07T18:35:16.234Z,34.80
2023-12-07T18:37:43.210Z,43.20
2023-12-07T18:40:10.130Z,37.58
2023-12-07T18:42:37.148Z,36.13
2023-12-07T18:45:04.154Z,39.85
2023-12-07T18:47:31.194Z,30.52
2023-12-07T18:49:57.892Z,32.00
2023-12-07T18:52:26.698Z,38.67
2023-12-07T18:54:53.388Z,36.80
2023-12-07T18:57:20.373Z,40.45
2023-12-07T18:59:47.127Z,32.78
2023-12-07T19:02:14.488Z,35.90
2023-12-07T19:04:44.554Z,39.50
2023-12-07T19:09:38.219Z,34.67
2023-12-07T19:12:05.589Z,34.88
2023-12-07T19:14:34.631Z,37.55
2023-12-07T19:17:01.683Z,39.67
2023-12-07T19:19:28.682Z,40.55
2023-12-07T19:21:55.773Z,38.80
2023-12-07T19:24:22.583Z,41.42
2023-12-07T19:26:49.977Z,39.08
2023-12-07T19:29:17.844Z,41.72
2023-12-07T19:31:45.579Z,38.33
2023-12-07T19:34:13.127Z,40.35
2023-12-07T19:36:41.480Z,41.70
2023-12-07T19:39:13.006Z,42.63
2023-12-07T19:41:41.736Z,38.00
2023-12-07T19:44:10.264Z,39.28
2023-12-07T19:46:37.285Z,38.47
2023-12-07T19:49:04.202Z,42.92
2023-12-07T19:51:31.276Z,44.38
2023-12-07T19:53:59.640Z,45.22
2023-12-07T19:56:26.699Z,45.13
2023-12-07T19:58:53.416Z,48.38
2023-12-07T20:01:20.398Z,46.67
2023-12-07T20:03:47.241Z,44.47
2023-12-07T20:06:15.019Z,50.35
2023-12-07T20:08:44.238Z,46.78
2023-12-07T20:11:17.234Z,45.63
2023-12-07T20:13:43.986Z,49.40
2023-12-07T20:16:19.801Z,50.05
2023-12-07T20:18:46.772Z,54.30
2023-12-07T20:21:14.230Z,47.25
2023-12-07T20:23:43.359Z,57.10
2023-12-07T20:26:16.137Z,64.93
2023-12-07T20:28:45.018Z,74.50
2023-12-07T20:31:12.069Z,66.20
2023-12-07T20:33:39.051Z,59.80
2023-12-07T20:36:06.851Z,51.72
2023-12-07T20:38:33.655Z,53.17
2023-12-07T20:41:00.762Z,48.97
2023-12-07T20:43:27.610Z,51.97
2023-12-07T20:45:54.542Z,51.10
2023-12-07T20:48:21.398Z,48.17
2023-12-07T20:50:49.207Z,56.90
2023-12-07T20:53:17.455Z,51.72
2023-12-07T20:55:44.800Z,52.45
2023-12-07T20:58:11.971Z,46.47
2023-12-07T21:00:39.086Z,51.47
2023-12-07T21:03:07.704Z,52.53
2023-12-07T21:05:34.990Z,51.30
2023-12-07T21:08:01.924Z,51.78
2023-12-07T21:10:28.949Z,51.95
2023-12-07T21:12:58.312Z,48.00
2023-12-07T21:15:25.847Z,56.47
2023-12-07T21:17:53.283Z,62.35
2023-12-07T21:20:21.363Z,55.83
2023-12-07T21:22:48.738Z,59.08
2023-12-07T21:25:16.073Z,64.38
2023-12-07T21:27:43.757Z,59.40
2023-12-07T21:30:11.220Z,53.88
2023-12-07T21:32:38.103Z,51.75
2023-12-07T21:35:08.358Z,54.72
2023-12-07T21:37:35.248Z,52.40
2023-12-07T21:40:04.060Z,56.53
2023-12-07T21:42:30.980Z,59.83
2023-12-07T21:44:57.996Z,57.88
2023-12-07T21:47:24.942Z,47.92
2023-12-07T21:49:52.204Z,54.88
2023-12-07T21:52:18.903Z,51.08
2023-12-07T21:54:45.955Z,59.55
2023-12-07T21:57:12.650Z,51.28
2023-12-07T21:59:39.718Z,44.95
2023-12-07T22:02:06.534Z,47.63
2023-12-07T22:04:33.533Z,51.85
2023-12-07T22:07:00.290Z,46.13
2023-12-07T22:09:27.407Z,45.67
2023-12-07T22:11:54.145Z,47.20
2023-12-07T22:14:21.241Z,44.35
2023-12-07T22:16:48.053Z,52.65
2023-12-07T22:19:18.466Z,49.75
2023-12-07T22:21:45.307Z,50.85
2023-12-07T22:24:12.342Z,51.70
2023-12-07T22:26:39.099Z,48.97
2023-12-07T22:29:06.074Z,58.90
2023-12-07T22:31:32.754Z,62.47
2023-12-07T22:34:03.189Z,57.10
2023-12-07T22:36:30.246Z,52.38
2023-12-07T22:38:59.118Z,48.65
2023-12-07T22:41:26.492Z,42.63
2023-12-07T22:43:53.524Z,49.38
2023-12-07T22:46:20.364Z,51.08
2023-12-07T22:48:48.293Z,54.63
2023-12-07T22:51:15.045Z,49.28
2023-12-07T22:53:45.867Z,52.25
2023-12-07T22:56:12.873Z,59.92
2023-12-07T22:58:40.018Z,47.83
2023-12-07T23:01:06.810Z,53.60
2023-12-07T23:03:35.457Z,53.67
2023-12-07T23:06:02.270Z,48.58
2023-12-07T23:08:29.395Z,48.60
2023-12-07T23:10:56.090Z,47.97
2023-12-07T23:13:23.235Z,52.05
2023-12-07T23:15:49.897Z,45.95
2023-12-07T23:18:17.247Z,45.03
2023-12-07T23:20:44.080Z,43.85
2023-12-07T23:23:11.055Z,49.33
2023-12-07T23:25:37.774Z,47.20
2023-12-07T23:28:05.042Z,43.30
2023-12-07T23:30:31.875Z,52.47
2023-12-07T23:32:58.946Z,42.53
2023-12-07T23:35:25.826Z,48.58
2023-12-07T23:37:52.766Z,48.50
2023-12-07T23:40:20.210Z,48.50
2023-12-07T23:42:47.175Z,48.85
2023-12-07T23:45:14.028Z,53.30
2023-12-07T23:47:41.152Z,47.35
2023-12-07T23:50:08.456Z,40.65
2023-12-07T23:52:35.469Z,44.45
2023-12-07T23:55:02.374Z,44.63
2023-12-07T23:57:29.327Z,45.92
2023-12-07T23:59:56.061Z,50.88
